sensor_id;sensor_type;location;lat;lon;timestamp;P1;durP1;ratioP1;P2;durP2;ratioP2
11957;SDS011;6039;52.576;13.348;2022-10-18T00:05:00;6.27;;;3.77;;
11957;SDS011;6039;52.576;13.348;2022-10-18T00:10:06;6.33;;;4.03;;
11957;SDS011;6039;52.576;13.348;2022-10-18T00:15:11;5.30;;;3.70;;
11957;SDS011;6039;52.576;13.348;2022-10-18T00:20:18;5.40;;;4.03;;
11957;SDS011;6039;52.576;13.348;2022-10-18T00:25:22;4.77;;;3.67;;
11957;SDS011;6039;52.576;13.348;2022-10-18T00:30:26;5.90;;;4.23;;
11957;SDS011;6039;52.576;13.348;2022-10-18T00:35:35;5.73;;;4.57;;
11957;SDS011;6039;52.576;13.348;2022-10-18T00:40:39;6.07;;;4.30;;
11957;SDS011;6039;52.576;13.348;2022-10-18T00:45:43;7.00;;;4.67;;
11957;SDS011;6039;52.576;13.348;2022-10-18T00:50:51;7.30;;;5.77;;
11957;SDS011;6039;52.576;13.348;2022-10-18T00:55:56;5.90;;;4.93;;
11957;SDS011;6039;52.576;13.348;2022-10-18T01:01:00;6.87;;;4.97;;
11957;SDS011;6039;52.576;13.348;2022-10-18T01:06:07;8.80;;;5.37;;
11957;SDS011;6039;52.576;13.348;2022-10-18T01:11:16;8.57;;;5.97;;
11957;SDS011;6039;52.576;13.348;2022-10-18T01:16:29;8.27;;;5.40;;
11957;SDS011;6039;52.576;13.348;2022-10-18T01:21:42;6.77;;;5.37;;
11957;SDS011;6039;52.576;13.348;2022-10-18T01:26:59;7.80;;;5.37;;
11957;SDS011;6039;52.576;13.348;2022-10-18T01:32:18;8.40;;;4.93;;
11957;SDS011;6039;52.576;13.348;2022-10-18T01:37:24;7.13;;;5.20;;
11957;SDS011;6039;52.576;13.348;2022-10-18T01:42:30;7.13;;;5.37;;
11957;SDS011;6039;52.576;13.348;2022-10-18T01:47:37;8.63;;;5.73;;
11957;SDS011;6039;52.576;13.348;2022-10-18T01:52:48;6.53;;;5.00;;
11957;SDS011;6039;52.576;13.348;2022-10-18T01:57:55;6.47;;;4.87;;
11957;SDS011;6039;52.576;13.348;2022-10-18T02:03:09;7.27;;;4.93;;
11957;SDS011;6039;52.576;13.348;2022-10-18T02:08:18;8.10;;;5.23;;
11957;SDS011;6039;52.576;13.348;2022-10-18T02:13:28;5.80;;;4.97;;
11957;SDS011;6039;52.576;13.348;2022-10-18T02:18:39;6.83;;;5.03;;
11957;SDS011;6039;52.576;13.348;2022-10-18T02:23:45;8.30;;;5.40;;
11957;SDS011;6039;52.576;13.348;2022-10-18T02:28:49;7.17;;;5.37;;
11957;SDS011;6039;52.576;13.348;2022-10-18T02:33:59;6.00;;;4.77;;
11957;SDS011;6039;52.576;13.348;2022-10-18T02:39:08;6.90;;;5.20;;
11957;SDS011;6039;52.576;13.348;2022-10-18T02:44:15;6.63;;;4.83;;
11957;SDS011;6039;52.576;13.348;2022-10-18T02:49:22;6.57;;;5.10;;
11957;SDS011;6039;52.576;13.348;2022-10-18T02:54:26;6.63;;;5.13;;
11957;SDS011;6039;52.576;13.348;2022-10-18T02:59:31;8.23;;;5.80;;
11957;SDS011;6039;52.576;13.348;2022-10-18T03:04:37;8.87;;;5.10;;
11957;SDS011;6039;52.576;13.348;2022-10-18T03:09:42;6.87;;;4.97;;
11957;SDS011;6039;52.576;13.348;2022-10-18T03:14:46;8.30;;;5.67;;
11957;SDS011;6039;52.576;13.348;2022-10-18T03:19:53;7.67;;;5.40;;
11957;SDS011;6039;52.576;13.348;2022-10-18T03:24:57;9.87;;;6.03;;
11957;SDS011;6039;52.576;13.348;2022-10-18T03:30:01;7.60;;;5.77;;
11957;SDS011;6039;52.576;13.348;2022-10-18T03:35:08;7.20;;;5.20;;
11957;SDS011;6039;52.576;13.348;2022-10-18T03:40:13;6.97;;;5.23;;
11957;SDS011;6039;52.576;13.348;2022-10-18T03:45:17;6.60;;;4.80;;
11957;SDS011;6039;52.576;13.348;2022-10-18T03:50:24;7.03;;;5.17;;
11957;SDS011;6039;52.576;13.348;2022-10-18T03:55:28;6.03;;;4.80;;
11957;SDS011;6039;52.576;13.348;2022-10-18T04:00:32;5.90;;;4.70;;
11957;SDS011;6039;52.576;13.348;2022-10-18T04:05:39;6.50;;;4.60;;
11957;SDS011;6039;52.576;13.348;2022-10-18T04:10:44;5.10;;;4.20;;
11957;SDS011;6039;52.576;13.348;2022-10-18T04:15:48;4.73;;;3.60;;
11957;SDS011;6039;52.576;13.348;2022-10-18T04:20:55;4.70;;;4.00;;
11957;SDS011;6039;52.576;13.348;2022-10-18T04:25:59;6.63;;;4.27;;
11957;SDS011;6039;52.576;13.348;2022-10-18T04:31:03;6.53;;;4.20;;
11957;SDS011;6039;52.576;13.348;2022-10-18T04:36:10;7.90;;;4.60;;
11957;SDS011;6039;52.576;13.348;2022-10-18T04:41:15;8.90;;;5.07;;
11957;SDS011;6039;52.576;13.348;2022-10-18T04:46:19;6.83;;;4.83;;
11957;SDS011;6039;52.576;13.348;2022-10-18T04:51:26;5.27;;;4.00;;
11957;SDS011;6039;52.576;13.348;2022-10-18T04:56:30;6.47;;;5.07;;
11957;SDS011;6039;52.576;13.348;2022-10-18T05:01:34;6.70;;;4.70;;
11957;SDS011;6039;52.576;13.348;2022-10-18T05:06:41;7.97;;;5.40;;
11957;SDS011;6039;52.576;13.348;2022-10-18T05:11:45;7.00;;;5.33;;
11957;SDS011;6039;52.576;13.348;2022-10-18T05:16:49;6.93;;;5.27;;
11957;SDS011;6039;52.576;13.348;2022-10-18T05:21:56;5.60;;;4.50;;
11957;SDS011;6039;52.576;13.348;2022-10-18T05:27:00;6.80;;;5.23;;
11957;SDS011;6039;52.576;13.348;2022-10-18T05:32:05;7.23;;;6.10;;
11957;SDS011;6039;52.576;13.348;2022-10-18T05:37:12;7.77;;;5.07;;
11957;SDS011;6039;52.576;13.348;2022-10-18T05:42:16;6.63;;;5.03;;
11957;SDS011;6039;52.576;13.348;2022-10-18T05:47:20;7.40;;;5.50;;
11957;SDS011;6039;52.576;13.348;2022-10-18T05:52:27;8.13;;;5.40;;
11957;SDS011;6039;52.576;13.348;2022-10-18T05:57:31;9.60;;;4.97;;
11957;SDS011;6039;52.576;13.348;2022-10-18T06:02:35;8.07;;;5.60;;
11957;SDS011;6039;52.576;13.348;2022-10-18T06:07:42;7.73;;;5.23;;
11957;SDS011;6039;52.576;13.348;2022-10-18T06:12:47;6.93;;;5.17;;
11957;SDS011;6039;52.576;13.348;2022-10-18T06:17:51;7.40;;;5.10;;
11957;SDS011;6039;52.576;13.348;2022-10-18T06:22:58;7.73;;;5.03;;
11957;SDS011;6039;52.576;13.348;2022-10-18T06:28:02;8.20;;;5.63;;
11957;SDS011;6039;52.576;13.348;2022-10-18T06:33:07;6.30;;;5.20;;
11957;SDS011;6039;52.576;13.348;2022-10-18T06:38:14;8.70;;;5.97;;
11957;SDS011;6039;52.576;13.348;2022-10-18T06:43:18;8.80;;;5.43;;
11957;SDS011;6039;52.576;13.348;2022-10-18T06:48:23;7.37;;;5.43;;
11957;SDS011;6039;52.576;13.348;2022-10-18T06:53:30;9.27;;;5.33;;
11957;SDS011;6039;52.576;13.348;2022-10-18T06:58:36;7.67;;;5.67;;
11957;SDS011;6039;52.576;13.348;2022-10-18T07:03:41;7.53;;;5.13;;
11957;SDS011;6039;52.576;13.348;2022-10-18T07:08:49;8.27;;;5.40;;
11957;SDS011;6039;52.576;13.348;2022-10-18T07:13:57;9.93;;;5.43;;
11957;SDS011;6039;52.576;13.348;2022-10-18T07:19:03;8.00;;;5.40;;
11957;SDS011;6039;52.576;13.348;2022-10-18T07:24:10;8.53;;;4.63;;
11957;SDS011;6039;52.576;13.348;2022-10-18T07:29:15;6.90;;;4.30;;
11957;SDS011;6039;52.576;13.348;2022-10-18T07:34:19;7.43;;;5.50;;
11957;SDS011;6039;52.576;13.348;2022-10-18T07:39:25;6.30;;;4.30;;
11957;SDS011;6039;52.576;13.348;2022-10-18T07:44:30;6.20;;;4.20;;
11957;SDS011;6039;52.576;13.348;2022-10-18T07:49:34;6.83;;;4.10;;
11957;SDS011;6039;52.576;13.348;2022-10-18T07:54:41;5.90;;;4.30;;
11957;SDS011;6039;52.576;13.348;2022-10-18T07:59:45;8.10;;;4.10;;
11957;SDS011;6039;52.576;13.348;2022-10-18T08:04:55;6.20;;;4.60;;
11957;SDS011;6039;52.576;13.348;2022-10-18T08:10:02;5.77;;;4.37;;
11957;SDS011;6039;52.576;13.348;2022-10-18T08:15:06;6.90;;;4.73;;
11957;SDS011;6039;52.576;13.348;2022-10-18T08:20:11;9.07;;;4.80;;
11957;SDS011;6039;52.576;13.348;2022-10-18T08:25:18;6.03;;;4.70;;
11957;SDS011;6039;52.576;13.348;2022-10-18T08:30:22;8.07;;;5.07;;
11957;SDS011;6039;52.576;13.348;2022-10-18T08:35:27;6.37;;;3.83;;
11957;SDS011;6039;52.576;13.348;2022-10-18T08:40:34;6.77;;;4.67;;
11957;SDS011;6039;52.576;13.348;2022-10-18T08:45:43;8.43;;;4.10;;
11957;SDS011;6039;52.576;13.348;2022-10-18T08:50:48;7.43;;;4.60;;
11957;SDS011;6039;52.576;13.348;2022-10-18T08:55:57;9.73;;;4.90;;
11957;SDS011;6039;52.576;13.348;2022-10-18T09:01:08;7.47;;;4.63;;
11957;SDS011;6039;52.576;13.348;2022-10-18T09:06:20;6.93;;;4.80;;
11957;SDS011;6039;52.576;13.348;2022-10-18T09:11:34;7.43;;;4.77;;
11957;SDS011;6039;52.576;13.348;2022-10-18T09:16:48;7.00;;;5.10;;
11957;SDS011;6039;52.576;13.348;2022-10-18T09:21:57;6.80;;;5.07;;
11957;SDS011;6039;52.576;13.348;2022-10-18T09:27:13;6.23;;;4.27;;
11957;SDS011;6039;52.576;13.348;2022-10-18T09:32:23;5.73;;;4.00;;
11957;SDS011;6039;52.576;13.348;2022-10-18T09:37:32;6.17;;;4.63;;
11957;SDS011;6039;52.576;13.348;2022-10-18T09:42:40;7.87;;;5.13;;
11957;SDS011;6039;52.576;13.348;2022-10-18T09:47:50;7.83;;;5.00;;
11957;SDS011;6039;52.576;13.348;2022-10-18T09:53:03;7.70;;;5.30;;
11957;SDS011;6039;52.576;13.348;2022-10-18T09:58:15;7.93;;;5.50;;
11957;SDS011;6039;52.576;13.348;2022-10-18T10:03:20;7.73;;;4.97;;
11957;SDS011;6039;52.576;13.348;2022-10-18T10:08:27;7.17;;;5.27;;
11957;SDS011;6039;52.576;13.348;2022-10-18T10:13:38;8.23;;;4.90;;
11957;SDS011;6039;52.576;13.348;2022-10-18T10:18:42;6.90;;;4.97;;
11957;SDS011;6039;52.576;13.348;2022-10-18T10:23:49;8.23;;;5.27;;
11957;SDS011;6039;52.576;13.348;2022-10-18T10:28:57;8.20;;;5.40;;
11957;SDS011;6039;52.576;13.348;2022-10-18T10:34:02;10.63;;;5.53;;
11957;SDS011;6039;52.576;13.348;2022-10-18T10:39:10;9.77;;;5.43;;
11957;SDS011;6039;52.576;13.348;2022-10-18T10:44:21;7.70;;;4.83;;
11957;SDS011;6039;52.576;13.348;2022-10-18T10:49:26;9.00;;;5.60;;
11957;SDS011;6039;52.576;13.348;2022-10-18T10:54:42;6.43;;;5.03;;
11957;SDS011;6039;52.576;13.348;2022-10-18T10:59:50;6.27;;;4.53;;
11957;SDS011;6039;52.576;13.348;2022-10-18T11:05:14;7.90;;;5.27;;
11957;SDS011;6039;52.576;13.348;2022-10-18T11:10:25;7.67;;;5.27;;
11957;SDS011;6039;52.576;13.348;2022-10-18T11:15:34;7.10;;;5.20;;
11957;SDS011;6039;52.576;13.348;2022-10-18T11:20:44;7.10;;;5.00;;
11957;SDS011;6039;52.576;13.348;2022-10-18T11:25:58;6.73;;;5.10;;
11957;SDS011;6039;52.576;13.348;2022-10-18T11:31:13;8.73;;;5.47;;
11957;SDS011;6039;52.576;13.348;2022-10-18T11:36:23;6.80;;;5.33;;
11957;SDS011;6039;52.576;13.348;2022-10-18T11:41:34;8.10;;;5.50;;
11957;SDS011;6039;52.576;13.348;2022-10-18T11:47:06;7.23;;;5.20;;
11957;SDS011;6039;52.576;13.348;2022-10-18T11:52:18;6.43;;;5.10;;
11957;SDS011;6039;52.576;13.348;2022-10-18T11:57:39;6.70;;;4.90;;
11957;SDS011;6039;52.576;13.348;2022-10-18T12:02:53;6.97;;;4.90;;
11957;SDS011;6039;52.576;13.348;2022-10-18T12:08:10;8.80;;;5.30;;
11957;SDS011;6039;52.576;13.348;2022-10-18T12:13:27;6.93;;;5.07;;
11957;SDS011;6039;52.576;13.348;2022-10-18T12:18:40;7.97;;;4.90;;
11957;SDS011;6039;52.576;13.348;2022-10-18T12:23:54;6.20;;;4.67;;
11957;SDS011;6039;52.576;13.348;2022-10-18T12:29:02;7.33;;;5.03;;
11957;SDS011;6039;52.576;13.348;2022-10-18T12:34:21;6.33;;;4.60;;
11957;SDS011;6039;52.576;13.348;2022-10-18T12:39:29;7.67;;;4.90;;
11957;SDS011;6039;52.576;13.348;2022-10-18T12:44:36;7.33;;;5.03;;
11957;SDS011;6039;52.576;13.348;2022-10-18T12:49:43;8.33;;;4.77;;
11957;SDS011;6039;52.576;13.348;2022-10-18T12:55:00;7.10;;;4.80;;
11957;SDS011;6039;52.576;13.348;2022-10-18T13:00:13;7.20;;;4.77;;
11957;SDS011;6039;52.576;13.348;2022-10-18T13:05:56;6.17;;;4.80;;
11957;SDS011;6039;52.576;13.348;2022-10-18T13:11:12;7.63;;;5.33;;
11957;SDS011;6039;52.576;13.348;2022-10-18T13:16:37;8.43;;;5.37;;
11957;SDS011;6039;52.576;13.348;2022-10-18T13:21:48;7.03;;;5.47;;
11957;SDS011;6039;52.576;13.348;2022-10-18T13:27:01;7.73;;;5.30;;
11957;SDS011;6039;52.576;13.348;2022-10-18T13:32:23;7.47;;;5.20;;
11957;SDS011;6039;52.576;13.348;2022-10-18T13:37:32;6.87;;;5.33;;
11957;SDS011;6039;52.576;13.348;2022-10-18T13:42:37;6.47;;;4.77;;
11957;SDS011;6039;52.576;13.348;2022-10-18T13:47:41;6.17;;;4.80;;
11957;SDS011;6039;52.576;13.348;2022-10-18T13:53:01;8.50;;;4.50;;
11957;SDS011;6039;52.576;13.348;2022-10-18T13:58:23;7.17;;;5.20;;
11957;SDS011;6039;52.576;13.348;2022-10-18T14:03:43;9.83;;;5.40;;
11957;SDS011;6039;52.576;13.348;2022-10-18T14:08:58;7.30;;;5.17;;
11957;SDS011;6039;52.576;13.348;2022-10-18T14:14:06;6.63;;;5.00;;
11957;SDS011;6039;52.576;13.348;2022-10-18T14:19:18;8.20;;;5.73;;
11957;SDS011;6039;52.576;13.348;2022-10-18T14:24:27;7.00;;;5.60;;
11957;SDS011;6039;52.576;13.348;2022-10-18T14:29:32;6.77;;;5.30;;
11957;SDS011;6039;52.576;13.348;2022-10-18T14:34:36;7.67;;;5.53;;
11957;SDS011;6039;52.576;13.348;2022-10-18T14:39:44;9.93;;;5.90;;
11957;SDS011;6039;52.576;13.348;2022-10-18T14:44:48;8.03;;;5.60;;
11957;SDS011;6039;52.576;13.348;2022-10-18T14:49:53;8.67;;;5.20;;
11957;SDS011;6039;52.576;13.348;2022-10-18T14:55:01;6.73;;;5.17;;
11957;SDS011;6039;52.576;13.348;2022-10-18T15:00:15;7.80;;;5.70;;
11957;SDS011;6039;52.576;13.348;2022-10-18T15:05:27;8.00;;;5.60;;
11957;SDS011;6039;52.576;13.348;2022-10-18T15:10:35;6.90;;;4.87;;
11957;SDS011;6039;52.576;13.348;2022-10-18T15:15:39;8.63;;;5.43;;
11957;SDS011;6039;52.576;13.348;2022-10-18T15:20:43;8.67;;;5.63;;
11957;SDS011;6039;52.576;13.348;2022-10-18T15:25:50;8.27;;;5.40;;
11957;SDS011;6039;52.576;13.348;2022-10-18T15:31:02;7.33;;;5.73;;
11957;SDS011;6039;52.576;13.348;2022-10-18T15:36:07;8.93;;;6.17;;
11957;SDS011;6039;52.576;13.348;2022-10-18T15:46:48;9.07;;;6.00;;
11957;SDS011;6039;52.576;13.348;2022-10-18T15:52:06;8.80;;;6.60;;
11957;SDS011;6039;52.576;13.348;2022-10-18T15:57:36;9.37;;;5.30;;
11957;SDS011;6039;52.576;13.348;2022-10-18T16:02:41;10.93;;;5.53;;
11957;SDS011;6039;52.576;13.348;2022-10-18T16:07:49;9.50;;;6.20;;
11957;SDS011;6039;52.576;13.348;2022-10-18T16:12:56;8.17;;;6.17;;
11957;SDS011;6039;52.576;13.348;2022-10-18T16:18:00;8.33;;;5.27;;
11957;SDS011;6039;52.576;13.348;2022-10-18T16:23:08;8.47;;;6.13;;
11957;SDS011;6039;52.576;13.348;2022-10-18T16:28:24;8.87;;;6.27;;
11957;SDS011;6039;52.576;13.348;2022-10-18T16:33:30;9.40;;;6.40;;
11957;SDS011;6039;52.576;13.348;2022-10-18T16:38:36;8.10;;;5.47;;
11957;SDS011;6039;52.576;13.348;2022-10-18T16:43:43;7.63;;;5.97;;
11957;SDS011;6039;52.576;13.348;2022-10-18T16:48:49;9.87;;;6.70;;
11957;SDS011;6039;52.576;13.348;2022-10-18T16:53:54;12.17;;;6.37;;
11957;SDS011;6039;52.576;13.348;2022-10-18T16:59:01;10.50;;;6.80;;
11957;SDS011;6039;52.576;13.348;2022-10-18T17:04:06;10.00;;;6.73;;
11957;SDS011;6039;52.576;13.348;2022-10-18T17:09:17;11.63;;;7.27;;
11957;SDS011;6039;52.576;13.348;2022-10-18T17:15:07;8.83;;;6.57;;
11957;SDS011;6039;52.576;13.348;2022-10-18T17:20:21;9.97;;;6.87;;
11957;SDS011;6039;52.576;13.348;2022-10-18T17:25:26;9.10;;;6.33;;
11957;SDS011;6039;52.576;13.348;2022-10-18T17:30:33;10.50;;;6.60;;
11957;SDS011;6039;52.576;13.348;2022-10-18T17:35:44;12.03;;;7.13;;
11957;SDS011;6039;52.576;13.348;2022-10-18T17:40:48;11.03;;;7.07;;
11957;SDS011;6039;52.576;13.348;2022-10-18T17:45:56;9.23;;;6.73;;
11957;SDS011;6039;52.576;13.348;2022-10-18T17:51:05;9.43;;;7.03;;
11957;SDS011;6039;52.576;13.348;2022-10-18T17:56:10;9.63;;;6.83;;
11957;SDS011;6039;52.576;13.348;2022-10-18T18:01:18;10.83;;;6.97;;
11957;SDS011;6039;52.576;13.348;2022-10-18T18:06:24;10.37;;;7.33;;
11957;SDS011;6039;52.576;13.348;2022-10-18T18:11:30;9.73;;;6.87;;
11957;SDS011;6039;52.576;13.348;2022-10-18T18:16:39;12.23;;;8.20;;
11957;SDS011;6039;52.576;13.348;2022-10-18T18:21:45;14.03;;;7.70;;
11957;SDS011;6039;52.576;13.348;2022-10-18T18:26:53;10.03;;;6.87;;
11957;SDS011;6039;52.576;13.348;2022-10-18T18:32:00;12.60;;;7.50;;
11957;SDS011;6039;52.576;13.348;2022-10-18T18:37:04;10.27;;;6.60;;
11957;SDS011;6039;52.576;13.348;2022-10-18T18:42:08;12.07;;;6.53;;
11957;SDS011;6039;52.576;13.348;2022-10-18T18:47:15;9.83;;;5.80;;
11957;SDS011;6039;52.576;13.348;2022-10-18T18:52:22;7.53;;;5.40;;
11957;SDS011;6039;52.576;13.348;2022-10-18T18:57:26;9.03;;;5.37;;
11957;SDS011;6039;52.576;13.348;2022-10-18T19:02:33;7.53;;;5.43;;
11957;SDS011;6039;52.576;13.348;2022-10-18T19:07:38;8.57;;;5.50;;
11957;SDS011;6039;52.576;13.348;2022-10-18T19:12:42;7.77;;;5.10;;
11957;SDS011;6039;52.576;13.348;2022-10-18T19:17:49;8.97;;;4.97;;
11957;SDS011;6039;52.576;13.348;2022-10-18T19:22:53;7.70;;;5.10;;
11957;SDS011;6039;52.576;13.348;2022-10-18T19:27:58;8.17;;;4.60;;
11957;SDS011;6039;52.576;13.348;2022-10-18T19:33:06;8.27;;;4.70;;
11957;SDS011;6039;52.576;13.348;2022-10-18T19:38:14;7.70;;;4.30;;
11957;SDS011;6039;52.576;13.348;2022-10-18T19:43:18;6.33;;;4.17;;
11957;SDS011;6039;52.576;13.348;2022-10-18T19:48:25;7.37;;;4.53;;
11957;SDS011;6039;52.576;13.348;2022-10-18T19:53:30;6.83;;;4.20;;
11957;SDS011;6039;52.576;13.348;2022-10-18T19:58:34;9.67;;;4.40;;
11957;SDS011;6039;52.576;13.348;2022-10-18T20:03:42;6.13;;;4.50;;
11957;SDS011;6039;52.576;13.348;2022-10-18T20:08:46;5.70;;;3.87;;
11957;SDS011;6039;52.576;13.348;2022-10-18T20:13:53;8.13;;;4.47;;
11957;SDS011;6039;52.576;13.348;2022-10-18T20:19:02;9.20;;;4.20;;
11957;SDS011;6039;52.576;13.348;2022-10-18T20:24:08;7.17;;;4.30;;
11957;SDS011;6039;52.576;13.348;2022-10-18T20:29:13;6.03;;;3.80;;
11957;SDS011;6039;52.576;13.348;2022-10-18T20:34:20;5.60;;;3.70;;
11957;SDS011;6039;52.576;13.348;2022-10-18T20:39:27;5.73;;;3.50;;
11957;SDS011;6039;52.576;13.348;2022-10-18T20:44:32;5.80;;;3.63;;
11957;SDS011;6039;52.576;13.348;2022-10-18T20:49:42;10.03;;;3.70;;
11957;SDS011;6039;52.576;13.348;2022-10-18T20:54:46;4.03;;;3.30;;
11957;SDS011;6039;52.576;13.348;2022-10-18T20:59:50;5.97;;;3.20;;
11957;SDS011;6039;52.576;13.348;2022-10-18T21:04:57;5.23;;;3.20;;
11957;SDS011;6039;52.576;13.348;2022-10-18T21:10:01;7.43;;;3.30;;
11957;SDS011;6039;52.576;13.348;2022-10-18T21:15:07;4.37;;;2.87;;
11957;SDS011;6039;52.576;13.348;2022-10-18T21:20:15;4.97;;;3.23;;
11957;SDS011;6039;52.576;13.348;2022-10-18T21:25:19;4.43;;;2.87;;
11957;SDS011;6039;52.576;13.348;2022-10-18T21:30:23;4.90;;;2.97;;
11957;SDS011;6039;52.576;13.348;2022-10-18T21:35:32;4.73;;;2.70;;
11957;SDS011;6039;52.576;13.348;2022-10-18T21:40:37;2.50;;;2.00;;
11957;SDS011;6039;52.576;13.348;2022-10-18T21:45:43;4.10;;;2.17;;
11957;SDS011;6039;52.576;13.348;2022-10-18T21:50:50;3.07;;;2.07;;
11957;SDS011;6039;52.576;13.348;2022-10-18T21:55:54;4.17;;;2.17;;
11957;SDS011;6039;52.576;13.348;2022-10-18T22:00:58;6.07;;;2.30;;
11957;SDS011;6039;52.576;13.348;2022-10-18T22:06:06;3.73;;;1.93;;
11957;SDS011;6039;52.576;13.348;2022-10-18T22:11:13;4.97;;;2.33;;
11957;SDS011;6039;52.576;13.348;2022-10-18T22:16:18;2.20;;;1.60;;
11957;SDS011;6039;52.576;13.348;2022-10-18T22:21:25;3.30;;;2.23;;
11957;SDS011;6039;52.576;13.348;2022-10-18T22:26:31;3.83;;;2.03;;
11957;SDS011;6039;52.576;13.348;2022-10-18T22:31:38;3.67;;;2.00;;
11957;SDS011;6039;52.576;13.348;2022-10-18T22:36:45;2.47;;;1.73;;
11957;SDS011;6039;52.576;13.348;2022-10-18T22:41:50;2.73;;;1.60;;
11957;SDS011;6039;52.576;13.348;2022-10-18T22:46:55;4.17;;;1.77;;
11957;SDS011;6039;52.576;13.348;2022-10-18T22:52:02;2.50;;;1.60;;
11957;SDS011;6039;52.576;13.348;2022-10-18T22:57:07;3.70;;;1.90;;
11957;SDS011;6039;52.576;13.348;2022-10-18T23:02:12;4.03;;;1.60;;
11957;SDS011;6039;52.576;13.348;2022-10-18T23:07:18;2.23;;;1.50;;
11957;SDS011;6039;52.576;13.348;2022-10-18T23:12:23;2.60;;;1.90;;
11957;SDS011;6039;52.576;13.348;2022-10-18T23:17:27;6.23;;;1.83;;
11957;SDS011;6039;52.576;13.348;2022-10-18T23:22:34;3.13;;;1.73;;
11957;SDS011;6039;52.576;13.348;2022-10-18T23:27:38;3.03;;;1.77;;
11957;SDS011;6039;52.576;13.348;2022-10-18T23:32:42;4.93;;;1.70;;
11957;SDS011;6039;52.576;13.348;2022-10-18T23:37:49;2.50;;;1.57;;
11957;SDS011;6039;52.576;13.348;2022-10-18T23:42:54;4.93;;;1.77;;
11957;SDS011;6039;52.576;13.348;2022-10-18T23:47:58;3.27;;;1.57;;
11957;SDS011;6039;52.576;13.348;2022-10-18T23:53:05;4.47;;;1.80;;
11957;SDS011;6039;52.576;13.348;2022-10-18T23:58:09;2.90;;;1.77;;
